Belgrade Nikola Tesla, Serbia

3:31 AM CEST on July 31, 2014 (GMT +0200)
Belgrade (LYBE) Elev 325 ft | 44.82 °N, 20.29 °E | Change Station

Current weather conditions updated 31 minutes ago

Scattered Clouds
Scattered Clouds
64 °F
Feels Like 64 °F
N
8
Wind Variable Wind from East

Today is forecast to be Much Cooler than yesterday. Showers and thunderstorms late.

Today
High -- | Low -- °F
--% Chance of Precip.
Yesterday
High -- | Low -- °F
Precip. -- in
5:23 AM 8:06 PM
Waxing Crescent, 15% visible
Pressure 29.77 in
Visibility 6.2 miles
Clouds Scattered Clouds 4000 ft
Dew Point 63 °F
Humidity 94%
Rainfall 0.00 in
Snow Depth Not available.
UV 0 out of 12
Pollen Not available.
Air Quality Not available.
Flu Activity Not available.
METAR LYBE 310100Z 10007KT 9999 SCT040 18/17 Q1008 NOSIG

More Conditions Fewer Conditions

Pressure 29.77 in
Visibility 6.2 miles
Clouds Scattered Clouds 4000 ft
Dew Point 63 °F
Humidity 94%
Rainfall 0.00 in
Snow Depth Not available.
UV 0 out of 12
Pollen Not available.
Air Quality Not available.
Flu Activity Not available.
METAR LYBE 310100Z 10007KT 9999 SCT040 18/17 Q1008 NOSIG

More Conditions Fewer Conditions

10-Day Weather Forecast

Almanac

Astronomy

Jul. 31, 2014 Rise Set
Actual Time 5:23 AM CEST 8:06 PM CEST
Civil Twilight 4:49 AM CEST 8:40 PM CEST
Nautical Twilight 4:06 AM CEST 9:22 PM CEST
Astronomical Twilight 3:17 AM CEST 10:11 PM CEST
Moon 9:46 AM CEST 9:56 PM CEST
Length of Visible Light 15h 50m
Length of Day
14h 43m
Tomorrow will be 2m 22s shorter.
Waxing Crescent, 15% of the Moon is Illuminated
Jul 30
Waxing Crescent
Aug 3
First Quarter
Aug 10
Full
Aug 17
Last Quarter
Aug 25
New

Community

WunderPhotos

Upload Photos

1,739,264 photos uploaded!

Nearby

Snow Depth

Not available.

Earthquake Activity

City Distance Mag. Time & Date
No recent earthquake activity has been reported nearby.
Minimum magnitude displayed is 2.5.

Coastal Water Temperatures

Place Temperature
No Stations Reporting

Nearby Weather Stations

Station Location Temp. Dew Point Humidity Wind Precip. Elev Updated Type
Duboko vinogradi, Bari%u010D 69.6 °F 63 °F 80% SW  at  1.0 mph 0.00 in / hr 522 ft 12:10 AM CEST Normal
Beograd-Karaburma, Beograd-Karaburma 65.1 °F 63 °F 94% SSE  at  9.0 mph 0.00 in / hr 355 ft 3:26 AM CEST Normal
Pancevo 62.4 °F 55 °F 76% South  at  3.6 mph 0.00 in / hr 78 ft 3:31 AM CEST Rapid Fire
Babe, vikend naselje, Sopot 64.9 °F 62 °F 90% North  at  - - / hr 1079 ft 3:29 AM CEST Normal

Show More Stations Show Fewer Stations